createdAt,value
2023-04-26T00:00:12.028Z,63.56
2023-04-26T00:02:41.597Z,63.45
2023-04-26T00:05:11.209Z,63.01
2023-04-26T00:07:40.751Z,62.99
2023-04-26T00:10:12.430Z,63.28
2023-04-26T00:12:42.819Z,63.06
2023-04-26T00:15:12.196Z,62.82
2023-04-26T00:17:41.371Z,62.60
2023-04-26T00:20:12.208Z,62.70
2023-04-26T00:22:41.190Z,62.81
2023-04-26T00:25:12.972Z,62.75
2023-04-26T00:27:41.836Z,62.49
2023-04-26T00:30:11.593Z,62.40
2023-04-26T00:32:40.699Z,62.53
2023-04-26T00:35:10.590Z,62.53
2023-04-26T00:37:38.983Z,62.49
2023-04-26T00:40:09.193Z,62.80
2023-04-26T00:42:40.151Z,62.68
2023-04-26T00:45:10.319Z,62.93
2023-04-26T00:47:39.520Z,62.52
2023-04-26T00:50:10.897Z,62.21
2023-04-26T00:52:40.843Z,62.84
2023-04-26T00:55:11.009Z,62.61
2023-04-26T00:57:41.651Z,63.13
2023-04-26T01:00:11.864Z,63.16
2023-04-26T01:02:41.928Z,64.05
2023-04-26T01:05:11.252Z,64.03
2023-04-26T01:07:40.266Z,63.76
2023-04-26T01:10:10.650Z,64.04
2023-04-26T01:12:41.697Z,63.96
2023-04-26T01:15:12.168Z,64.45
2023-04-26T01:17:41.023Z,64.25
2023-04-26T01:20:12.506Z,64.51
2023-04-26T01:22:42.885Z,64.88
2023-04-26T01:25:14.690Z,64.71
2023-04-26T01:27:43.562Z,64.17
2023-04-26T01:30:12.822Z,64.26
2023-04-26T01:32:41.891Z,65.09
2023-04-26T01:35:10.902Z,65.16
2023-04-26T01:37:39.825Z,64.73
2023-04-26T01:40:11.907Z,65.12
2023-04-26T01:42:41.670Z,63.59
2023-04-26T01:45:11.098Z,63.54
2023-04-26T01:47:51.138Z,63.93
2023-04-26T01:50:20.257Z,63.29
2023-04-26T01:52:48.980Z,63.11
2023-04-26T01:55:19.463Z,63.23
2023-04-26T01:57:48.261Z,63.11
2023-04-26T02:00:17.425Z,63.59
2023-04-26T02:02:46.185Z,63.54
2023-04-26T02:05:15.060Z,63.19
2023-04-26T02:07:43.890Z,63.63
2023-04-26T02:10:12.763Z,63.45
2023-04-26T02:12:43.099Z,63.21
2023-04-26T02:15:12.955Z,63.93
2023-04-26T02:17:42.671Z,63.34
2023-04-26T02:20:12.661Z,63.54
2023-04-26T02:22:41.411Z,63.43
2023-04-26T02:25:11.824Z,63.85
2023-04-26T02:27:41.326Z,64.53
2023-04-26T02:30:12.222Z,63.96
2023-04-26T02:32:42.929Z,64.19
2023-04-26T02:35:12.115Z,63.19
2023-04-26T02:37:40.925Z,63.81
2023-04-26T02:40:13.744Z,64.28
2023-04-26T02:42:42.936Z,64.86
2023-04-26T02:45:13.346Z,65.06
2023-04-26T02:47:42.292Z,65.84
2023-04-26T02:50:11.838Z,66.29
2023-04-26T02:52:40.882Z,65.84
2023-04-26T02:55:10.380Z,66.06
2023-04-26T02:57:38.950Z,66.36
2023-04-26T03:00:11.820Z,66.13
2023-04-26T03:02:42.537Z,66.14
2023-04-26T03:05:11.549Z,65.97
2023-04-26T03:07:40.327Z,65.76
2023-04-26T03:10:10.116Z,65.06
2023-04-26T03:12:41.013Z,64.53
2023-04-26T03:15:10.394Z,64.38
2023-04-26T03:17:43.516Z,63.75
2023-04-26T03:20:14.359Z,63.29
2023-04-26T03:22:43.458Z,61.89
2023-04-26T03:25:13.541Z,61.64
2023-04-26T03:27:42.348Z,61.68
2023-04-26T03:30:11.968Z,60.93
2023-04-26T03:32:43.647Z,61.52
2023-04-26T03:35:12.474Z,61.24
2023-04-26T03:37:41.314Z,61.43
2023-04-26T03:40:14.437Z,60.85
2023-04-26T03:42:43.272Z,60.99
2023-04-26T03:45:12.610Z,61.18
2023-04-26T03:47:41.585Z,61.30
2023-04-26T03:50:12.776Z,61.14
2023-04-26T03:52:41.878Z,61.17
2023-04-26T03:55:12.041Z,61.94
2023-04-26T03:57:41.620Z,61.43
2023-04-26T04:00:12.494Z,61.10
2023-04-26T04:02:45.099Z,61.38
2023-04-26T04:05:24.452Z,61.68
2023-04-26T04:07:53.860Z,61.36
2023-04-26T04:10:23.945Z,61.04
2023-04-26T04:12:53.461Z,60.89
2023-04-26T04:15:22.961Z,60.84
2023-04-26T04:17:52.328Z,60.72
2023-04-26T04:20:21.675Z,60.21
2023-04-26T04:22:53.043Z,61.07
2023-04-26T04:25:22.791Z,61.32
2023-04-26T04:27:52.128Z,61.06
2023-04-26T04:30:21.892Z,61.34
2023-04-26T04:32:50.728Z,61.50
2023-04-26T04:35:19.872Z,61.82
2023-04-26T04:37:51.800Z,61.43
2023-04-26T04:40:21.139Z,61.71
2023-04-26T04:42:51.357Z,61.39
2023-04-26T04:45:22.880Z,61.58
2023-04-26T04:47:54.517Z,60.94
2023-04-26T04:50:23.861Z,60.86
2023-04-26T04:52:54.091Z,61.61
2023-04-26T04:55:24.146Z,60.32
2023-04-26T04:57:53.905Z,61.41
2023-04-26T05:00:23.360Z,61.35
2023-04-26T05:02:58.623Z,60.87
2023-04-26T05:05:29.519Z,60.58
2023-04-26T05:08:00.196Z,60.66
2023-04-26T05:10:28.995Z,61.05
2023-04-26T05:12:58.132Z,60.88
2023-04-26T05:15:28.071Z,61.27
2023-04-26T05:17:57.915Z,60.79
2023-04-26T05:20:27.572Z,59.64
2023-04-26T05:22:57.610Z,59.71
2023-04-26T05:25:27.909Z,59.02
2023-04-26T05:28:06.874Z,57.95
2023-04-26T05:30:41.245Z,57.37
2023-04-26T05:33:23.082Z,57.88
2023-04-26T05:36:10.416Z,57.83
2023-04-26T05:38:39.684Z,57.24
2023-04-26T05:41:09.963Z,57.20
2023-04-26T05:43:39.203Z,56.64
2023-04-26T05:46:08.366Z,56.58
2023-04-26T05:48:37.445Z,56.55
2023-04-26T05:51:06.754Z,56.60
2023-04-26T05:53:36.737Z,56.01
2023-04-26T05:56:07.283Z,55.24
2023-04-26T05:58:40.162Z,54.23
2023-04-26T06:01:08.970Z,53.41
2023-04-26T06:03:38.536Z,53.10
2023-04-26T06:06:08.179Z,53.27
2023-04-26T06:08:39.981Z,53.33
2023-04-26T06:11:08.894Z,52.69
2023-04-26T06:13:37.632Z,52.23
2023-04-26T06:16:10.246Z,51.79
2023-04-26T06:18:39.128Z,50.82
2023-04-26T06:21:08.969Z,50.23
2023-04-26T06:23:38.801Z,50.23
2023-04-26T06:26:07.534Z,50.06
2023-04-26T06:28:36.262Z,49.44
2023-04-26T06:31:05.233Z,49.77
2023-04-26T06:33:35.402Z,49.29
2023-04-26T06:36:04.149Z,49.76
2023-04-26T06:38:32.900Z,48.98
2023-04-26T06:41:01.783Z,49.17
2023-04-26T06:43:30.614Z,49.48
2023-04-26T06:46:03.808Z,49.50
2023-04-26T06:48:32.647Z,48.41
2023-04-26T06:51:07.667Z,49.07
2023-04-26T06:53:37.604Z,48.68
2023-04-26T06:56:06.793Z,48.37
2023-04-26T06:58:35.452Z,47.95
2023-04-26T07:01:04.218Z,47.80
2023-04-26T07:03:33.426Z,47.75
2023-04-26T07:06:04.721Z,47.55
2023-04-26T07:08:33.560Z,47.77
2023-04-26T07:11:02.364Z,47.31
2023-04-26T07:13:31.755Z,46.69
2023-04-26T07:16:00.432Z,46.39
2023-04-26T07:18:29.203Z,46.42
2023-04-26T07:20:57.830Z,46.38
2023-04-26T07:23:27.905Z,47.11
2023-04-26T07:25:57.866Z,47.51
2023-04-26T07:28:26.839Z,47.74
2023-04-26T07:30:55.464Z,48.09
2023-04-26T07:33:24.269Z,47.68
2023-04-26T07:35:57.154Z,47.14
2023-04-26T07:38:27.478Z,46.86
2023-04-26T07:40:57.203Z,45.99
2023-04-26T07:43:25.537Z,45.54
2023-04-26T07:45:54.482Z,45.65
2023-04-26T07:48:23.377Z,45.50
2023-04-26T07:50:52.305Z,45.11
2023-04-26T07:53:21.282Z,45.03
2023-04-26T07:55:52.234Z,45.27
2023-04-26T07:58:21.892Z,45.91
2023-04-26T08:00:51.006Z,44.96
2023-04-26T08:03:19.910Z,44.21
2023-04-26T08:05:49.006Z,43.47
2023-04-26T08:08:19.114Z,43.67
2023-04-26T08:10:47.998Z,43.86
2023-04-26T08:13:18.112Z,43.39
2023-04-26T08:15:46.928Z,42.52
2023-04-26T08:18:15.558Z,42.14
2023-04-26T08:20:44.889Z,41.38
2023-04-26T08:23:14.615Z,40.32
2023-04-26T08:25:44.803Z,40.52
2023-04-26T08:28:14.921Z,40.64
2023-04-26T08:30:45.067Z,41.25
2023-04-26T08:33:13.843Z,42.23
2023-04-26T08:35:42.955Z,41.89
2023-04-26T08:38:11.675Z,41.23
2023-04-26T08:40:42.608Z,40.66
2023-04-26T08:43:13.113Z,41.35
2023-04-26T08:45:42.840Z,41.08
2023-04-26T08:48:16.374Z,39.44
2023-04-26T08:50:46.905Z,39.70
2023-04-26T08:53:18.045Z,39.46
2023-04-26T08:55:49.966Z,39.61
2023-04-26T08:58:19.380Z,39.56
2023-04-26T09:00:48.682Z,40.08
2023-04-26T09:03:19.179Z,40.71
2023-04-26T09:05:48.356Z,41.35
2023-04-26T09:08:18.569Z,41.26
2023-04-26T09:10:47.694Z,41.91
2023-04-26T09:13:16.506Z,42.20
2023-04-26T09:15:45.440Z,42.15
2023-04-26T09:18:23.417Z,41.59
2023-04-26T09:21:05.909Z,41.49
2023-04-26T09:23:35.443Z,40.67
2023-04-26T09:26:18.456Z,39.96
2023-04-26T09:28:48.129Z,39.42
2023-04-26T09:31:40.380Z,39.50
2023-04-26T09:34:11.440Z,40.40
2023-04-26T09:36:52.347Z,40.56
2023-04-26T09:39:35.839Z,41.20
2023-04-26T09:42:05.513Z,41.29
2023-04-26T09:44:34.113Z,42.06
2023-04-26T09:47:05.503Z,42.51
2023-04-26T09:49:46.969Z,42.34
2023-04-26T09:52:16.398Z,41.76
2023-04-26T09:54:48.030Z,41.43
2023-04-26T09:57:18.649Z,41.50
2023-04-26T09:59:49.150Z,41.68
2023-04-26T10:02:22.212Z,41.19
2023-04-26T10:04:54.669Z,41.28
2023-04-26T10:07:24.809Z,40.68
2023-04-26T10:09:55.862Z,39.97
2023-04-26T10:12:25.079Z,40.27
2023-04-26T10:14:53.885Z,38.30
2023-04-26T10:17:23.119Z,38.07
2023-04-26T10:19:57.815Z,38.32
2023-04-26T10:22:30.107Z,38.89
2023-04-26T10:24:59.054Z,38.76
2023-04-26T10:27:49.659Z,38.77
2023-04-26T10:30:19.241Z,38.31
2023-04-26T10:32:58.657Z,38.74
2023-04-26T10:35:31.063Z,38.50
2023-04-26T10:38:16.440Z,38.81
2023-04-26T10:40:46.562Z,38.18
2023-04-26T10:43:29.284Z,37.85
2023-04-26T10:45:58.245Z,37.24
2023-04-26T10:48:32.596Z,38.19
2023-04-26T10:51:13.898Z,38.22
2023-04-26T10:54:00.898Z,38.59
2023-04-26T10:56:50.338Z,38.04
2023-04-26T10:59:39.837Z,38.01
2023-04-26T11:02:12.804Z,38.24
2023-04-26T11:04:52.607Z,37.72
2023-04-26T11:07:37.810Z,35.54
2023-04-26T11:10:10.855Z,35.56
2023-04-26T11:12:43.680Z,34.91
2023-04-26T11:15:14.481Z,35.35
2023-04-26T11:17:43.465Z,35.60
2023-04-26T11:20:17.809Z,35.96
2023-04-26T11:22:47.993Z,35.57
2023-04-26T11:25:16.730Z,36.00
2023-04-26T11:27:45.459Z,37.03
2023-04-26T11:30:15.006Z,37.28
2023-04-26T11:32:43.802Z,37.64
2023-04-26T11:35:13.518Z,37.88
2023-04-26T11:37:42.424Z,37.90
2023-04-26T11:40:13.906Z,37.41
2023-04-26T11:42:42.835Z,36.31
2023-04-26T11:45:12.584Z,36.06
2023-04-26T11:47:42.500Z,35.81
2023-04-26T11:50:11.663Z,35.21
2023-04-26T11:52:40.941Z,35.19
2023-04-26T11:55:12.881Z,34.64
2023-04-26T11:57:41.781Z,35.53
2023-04-26T12:00:16.143Z,35.26
2023-04-26T12:02:49.126Z,35.96
2023-04-26T12:05:26.736Z,35.93
2023-04-26T12:07:57.369Z,35.49
2023-04-26T12:10:30.273Z,34.30
2023-04-26T12:13:01.371Z,34.59
2023-04-26T12:15:32.422Z,34.44
2023-04-26T12:18:07.427Z,34.88
2023-04-26T12:20:38.246Z,34.76
2023-04-26T12:23:08.097Z,35.12
2023-04-26T12:25:38.824Z,35.14
2023-04-26T12:28:12.728Z,36.06
2023-04-26T12:30:42.178Z,35.64
2023-04-26T12:33:17.123Z,35.92
2023-04-26T12:35:48.137Z,35.58
2023-04-26T12:38:17.065Z,36.22
2023-04-26T12:40:47.795Z,35.48
2023-04-26T12:43:17.190Z,35.76
2023-04-26T12:45:46.279Z,35.98
2023-04-26T12:48:15.874Z,35.90
2023-04-26T12:50:46.046Z,35.50
2023-04-26T12:53:15.688Z,35.81
2023-04-26T12:55:44.237Z,35.85
2023-04-26T12:58:14.639Z,36.33
2023-04-26T13:00:44.770Z,36.30
2023-04-26T13:03:15.220Z,36.82
2023-04-26T13:05:44.429Z,37.19
2023-04-26T13:08:13.348Z,37.12
2023-04-26T13:10:42.447Z,36.13
2023-04-26T13:13:11.276Z,36.38
2023-04-26T13:15:41.488Z,36.56
2023-04-26T13:18:10.323Z,36.61
2023-04-26T13:20:39.113Z,36.38
2023-04-26T13:23:07.764Z,37.25
2023-04-26T13:25:36.486Z,37.32
2023-04-26T13:28:05.635Z,36.79
2023-04-26T13:30:34.443Z,36.49
2023-04-26T13:33:04.997Z,35.71
2023-04-26T13:35:33.957Z,35.34
2023-04-26T13:38:03.096Z,35.39
2023-04-26T13:40:31.873Z,35.69
2023-04-26T13:43:00.574Z,35.48
2023-04-26T13:45:29.323Z,34.90
2023-04-26T13:47:58.110Z,35.46
2023-04-26T13:50:28.578Z,35.39
2023-04-26T13:52:57.281Z,35.45
2023-04-26T13:55:26.048Z,35.20
2023-04-26T13:57:54.965Z,34.38
2023-04-26T14:00:24.405Z,34.34
2023-04-26T14:02:53.472Z,34.14
2023-04-26T14:05:22.888Z,34.21
2023-04-26T14:07:54.921Z,34.28
2023-04-26T14:10:24.597Z,34.78
2023-04-26T14:12:53.696Z,35.23
2023-04-26T14:15:22.897Z,35.22
2023-04-26T14:17:51.904Z,35.85
2023-04-26T14:20:20.749Z,35.77
2023-04-26T14:22:50.553Z,36.42
2023-04-26T14:25:21.050Z,36.50
2023-04-26T14:27:53.055Z,36.29
2023-04-26T14:30:22.886Z,36.39
2023-04-26T14:32:51.684Z,36.44
2023-04-26T14:35:20.739Z,36.44
2023-04-26T14:37:49.544Z,36.66
2023-04-26T14:40:18.408Z,36.69
2023-04-26T14:42:49.132Z,36.75
2023-04-26T14:45:17.992Z,36.67
2023-04-26T14:47:46.738Z,36.24
2023-04-26T14:50:15.677Z,36.18
2023-04-26T14:52:44.587Z,35.68
2023-04-26T14:55:18.349Z,35.89
2023-04-26T14:57:48.842Z,36.23
2023-04-26T15:00:18.221Z,35.37
2023-04-26T15:02:47.368Z,35.78
2023-04-26T15:05:16.372Z,35.35
2023-04-26T15:07:45.028Z,34.68
2023-04-26T15:10:14.065Z,34.12
2023-04-26T15:12:42.887Z,33.90
2023-04-26T15:15:13.642Z,33.94
2023-04-26T15:17:42.315Z,33.20
2023-04-26T15:20:11.612Z,33.11
2023-04-26T15:22:40.668Z,33.36
2023-04-26T15:25:11.637Z,32.88
2023-04-26T15:27:41.609Z,32.85
2023-04-26T15:30:11.001Z,32.68
2023-04-26T15:32:41.142Z,32.84
2023-04-26T15:35:15.547Z,33.08
2023-04-26T15:37:45.587Z,33.38
2023-04-26T15:40:14.797Z,33.86
2023-04-26T15:42:44.119Z,34.52
2023-04-26T15:45:13.261Z,34.79
2023-04-26T15:47:43.512Z,35.13
2023-04-26T15:50:13.131Z,35.28
2023-04-26T15:52:42.332Z,35.03
2023-04-26T15:55:11.373Z,35.61
2023-04-26T15:57:43.216Z,35.50
2023-04-26T16:00:14.356Z,35.70
2023-04-26T16:02:45.391Z,35.79
2023-04-26T16:05:14.545Z,35.23
2023-04-26T16:07:43.388Z,35.30
2023-04-26T16:10:12.781Z,35.43
2023-04-26T16:12:43.210Z,35.66
2023-04-26T16:15:12.835Z,35.14
2023-04-26T16:17:41.640Z,34.30
2023-04-26T16:20:13.034Z,34.37
2023-04-26T16:22:44.005Z,33.54
2023-04-26T16:25:13.959Z,32.80
2023-04-26T16:27:42.721Z,33.31
2023-04-26T16:30:12.353Z,33.39
2023-04-26T16:32:40.940Z,34.41
2023-04-26T16:35:11.792Z,35.12
2023-04-26T16:37:42.174Z,35.52
2023-04-26T16:40:11.771Z,35.90
2023-04-26T16:42:43.559Z,36.00
2023-04-26T16:45:16.076Z,36.05
2023-04-26T16:47:45.520Z,36.10
2023-04-26T16:50:16.096Z,36.40
2023-04-26T16:52:44.987Z,36.57
2023-04-26T16:55:13.985Z,36.76
2023-04-26T16:57:43.726Z,36.48
2023-04-26T17:00:13.961Z,36.26
2023-04-26T17:02:42.797Z,36.09
2023-04-26T17:05:12.532Z,36.46
2023-04-26T17:07:42.983Z,36.83
2023-04-26T17:10:12.137Z,37.00
2023-04-26T17:12:41.103Z,36.79
2023-04-26T17:15:10.585Z,36.60
2023-04-26T17:17:39.452Z,36.87
2023-04-26T17:20:10.827Z,36.64
2023-04-26T17:22:40.829Z,37.11
2023-04-26T17:25:11.621Z,37.89
2023-04-26T17:27:40.466Z,37.19
2023-04-26T17:30:10.144Z,37.65
2023-04-26T17:32:38.818Z,37.56
2023-04-26T17:35:08.702Z,37.57
2023-04-26T17:37:37.635Z,37.95
2023-04-26T17:40:08.341Z,38.22
2023-04-26T17:42:38.581Z,38.24
2023-04-26T17:45:09.530Z,38.60
2023-04-26T17:47:40.022Z,38.55
2023-04-26T17:50:10.087Z,39.00
2023-04-26T17:52:39.215Z,38.68
2023-04-26T17:55:10.140Z,38.73
2023-04-26T17:57:41.034Z,39.23
2023-04-26T18:00:10.941Z,39.86
2023-04-26T18:02:39.484Z,40.00
2023-04-26T18:05:10.172Z,40.16
2023-04-26T18:07:39.226Z,40.40
2023-04-26T18:10:09.222Z,40.98
2023-04-26T18:12:40.093Z,41.41
2023-04-26T18:15:09.837Z,40.96
2023-04-26T18:17:38.601Z,42.05
2023-04-26T18:20:09.602Z,43.14
2023-04-26T18:22:39.226Z,43.59
2023-04-26T18:25:08.601Z,44.65
2023-04-26T18:27:37.484Z,43.99
2023-04-26T18:30:09.440Z,43.80
2023-04-26T18:32:38.905Z,44.05
2023-04-26T18:35:08.623Z,43.51
2023-04-26T18:37:39.969Z,44.26
2023-04-26T18:40:09.983Z,44.91
2023-04-26T18:42:39.397Z,45.57
2023-04-26T18:45:12.462Z,46.40
2023-04-26T18:47:41.760Z,47.08
2023-04-26T18:50:10.898Z,47.37
2023-04-26T18:52:40.110Z,47.01
2023-04-26T18:55:09.559Z,47.60
2023-04-26T18:57:39.206Z,48.25
2023-04-26T19:00:11.151Z,48.66
2023-04-26T19:02:41.331Z,49.20
2023-04-26T19:05:12.234Z,49.35
2023-04-26T19:07:41.963Z,49.70
2023-04-26T19:10:11.802Z,49.24
2023-04-26T19:12:41.012Z,49.62
2023-04-26T19:15:12.145Z,50.25
2023-04-26T19:17:41.297Z,50.10
2023-04-26T19:20:13.490Z,50.78
2023-04-26T19:22:44.934Z,50.67
2023-04-26T19:25:20.818Z,51.58
2023-04-26T19:27:49.701Z,51.12
2023-04-26T19:30:20.004Z,52.25
2023-04-26T19:32:48.971Z,52.61
2023-04-26T19:35:17.883Z,53.06
2023-04-26T19:37:46.641Z,52.97
2023-04-26T19:40:15.469Z,52.59
2023-04-26T19:42:44.853Z,52.92
2023-04-26T19:45:13.776Z,51.98
2023-04-26T19:47:44.338Z,51.93
2023-04-26T19:50:13.561Z,52.65
2023-04-26T19:52:42.354Z,51.86
2023-04-26T19:55:11.798Z,52.14
2023-04-26T19:57:41.426Z,53.04
2023-04-26T20:00:11.921Z,53.39
2023-04-26T20:02:40.769Z,53.86
2023-04-26T20:05:11.788Z,53.41
2023-04-26T20:07:41.129Z,53.73
2023-04-26T20:10:11.177Z,54.07
2023-04-26T20:12:40.677Z,53.98
2023-04-26T20:15:12.221Z,54.18
2023-04-26T20:17:41.611Z,53.96
2023-04-26T20:20:14.004Z,54.05
2023-04-26T20:22:43.356Z,53.83
2023-04-26T20:25:12.787Z,53.93
2023-04-26T20:27:41.557Z,53.62
2023-04-26T20:30:11.324Z,53.36
2023-04-26T20:32:40.187Z,53.92
2023-04-26T20:35:09.722Z,53.67
2023-04-26T20:37:40.674Z,54.02
2023-04-26T20:40:10.750Z,53.83
2023-04-26T20:42:39.973Z,54.41
2023-04-26T20:45:09.961Z,54.52
2023-04-26T20:47:39.160Z,54.76
2023-04-26T20:50:09.352Z,55.42
2023-04-26T20:52:38.271Z,55.44
2023-04-26T20:55:09.650Z,55.50
2023-04-26T20:57:38.708Z,56.72
2023-04-26T21:00:10.739Z,57.23
2023-04-26T21:02:40.072Z,58.01
2023-04-26T21:05:09.552Z,57.83
2023-04-26T21:07:38.176Z,58.10
2023-04-26T21:10:10.128Z,58.30
2023-04-26T21:12:38.909Z,58.56
2023-04-26T21:15:09.072Z,58.43
2023-04-26T21:17:38.063Z,58.52
2023-04-26T21:20:07.766Z,58.43
2023-04-26T21:22:36.683Z,58.43
2023-04-26T21:25:05.811Z,58.27
2023-04-26T21:27:36.796Z,58.12
2023-04-26T21:30:06.510Z,58.09
2023-04-26T21:32:35.300Z,58.10
2023-04-26T21:35:04.144Z,58.06
2023-04-26T21:37:32.828Z,58.00
2023-04-26T21:40:01.738Z,58.49
2023-04-26T21:42:30.614Z,58.85
2023-04-26T21:45:00.893Z,58.77
2023-04-26T21:47:29.694Z,59.75
2023-04-26T21:49:58.623Z,60.03
2023-04-26T21:52:27.616Z,60.31
2023-04-26T21:54:56.392Z,60.09
2023-04-26T21:57:25.055Z,60.43
2023-04-26T21:59:54.031Z,60.48
2023-04-26T22:02:24.473Z,61.02
2023-04-26T22:04:55.500Z,60.86
2023-04-26T22:07:24.311Z,61.53
2023-04-26T22:09:53.039Z,62.58
2023-04-26T22:12:22.009Z,62.09
2023-04-26T22:14:50.870Z,62.10
2023-04-26T22:17:19.746Z,62.28
2023-04-26T22:19:50.262Z,62.85
2023-04-26T22:22:19.883Z,62.73
2023-04-26T22:24:48.601Z,63.43
2023-04-26T22:27:17.795Z,63.19
2023-04-26T22:29:46.600Z,63.51
2023-04-26T22:32:15.539Z,63.34
2023-04-26T22:34:44.493Z,63.94
2023-04-26T22:37:21.336Z,64.25
2023-04-26T22:39:53.364Z,64.13
2023-04-26T22:42:22.340Z,64.41
2023-04-26T22:44:51.080Z,64.12
2023-04-26T22:47:23.008Z,64.50
2023-04-26T22:49:52.204Z,64.64
2023-04-26T22:52:31.465Z,64.88
2023-04-26T22:55:01.469Z,65.54
2023-04-26T22:57:30.506Z,65.67
2023-04-26T22:59:59.728Z,65.39
2023-04-26T23:02:28.764Z,65.42
2023-04-26T23:04:57.799Z,65.60
2023-04-26T23:07:28.052Z,66.19
2023-04-26T23:09:57.040Z,65.73
2023-04-26T23:12:25.803Z,66.60
2023-04-26T23:14:58.567Z,66.29
2023-04-26T23:17:27.888Z,66.02
2023-04-26T23:19:56.861Z,66.21
2023-04-26T23:22:25.888Z,66.87
2023-04-26T23:24:56.234Z,66.64
2023-04-26T23:27:24.991Z,66.79
2023-04-26T23:29:53.805Z,67.07
2023-04-26T23:32:22.653Z,66.89
2023-04-26T23:34:51.387Z,66.90
2023-04-26T23:37:20.453Z,67.10
2023-04-26T23:39:49.212Z,67.34
2023-04-26T23:42:19.486Z,67.08
2023-04-26T23:44:48.584Z,67.83
2023-04-26T23:47:17.328Z,67.46
2023-04-26T23:49:46.155Z,68.05
2023-04-26T23:52:14.886Z,67.87
2023-04-26T23:54:43.663Z,68.31
2023-04-26T23:57:12.963Z,68.48
2023-04-26T23:59:43.279Z,68.54
